MFF168 LOWW-LHBP
Flight info
| Callsign | MFF168 |
|---|---|
| Flight time | 0h 37m |
| Altitude | 21000 |
| Route | ADAMA Z647 ANEXA |
| Aircraft | B738/M-SDE2E3FGHIRWXY/LB1 |
Departure
| Time | 2026-05-05 08:55 |
|---|---|
| Airport | Vienna International Airport (LOWW) |
Arrival
| Time | 2026-05-05 09:32 |
|---|---|
| Airport | Budapest Liszt Ferenc International Airport (LHBP) |
| Time | Latitude | Longitude | Altitude | Speed | Heading |
|---|---|---|---|---|---|
| 2026-05-05 08:28 | 48.11637 | 16.56510 | 608 ft | 0 kts | 205° |
| 2026-05-05 08:38 | 48.11637 | 16.56511 | 608 ft | 0 kts | 205° |
| 2026-05-05 08:38 | 48.11637 | 16.56510 | 608 ft | 0 kts | 205° |
| 2026-05-05 08:38 | 48.11637 | 16.56511 | 608 ft | 0 kts | 205° |
| 2026-05-05 08:40 | 48.11638 | 16.56511 | 608 ft | 0 kts | 205° |
| 2026-05-05 08:48 | 48.11630 | 16.56505 | 622 ft | 4 kts | 204° |
| 2026-05-05 08:48 | 48.11610 | 16.56493 | 609 ft | 5 kts | 199° |
| 2026-05-05 08:48 | 48.11572 | 16.56496 | 613 ft | 6 kts | 157° |
| 2026-05-05 08:49 | 48.11543 | 16.56538 | 609 ft | 6 kts | 124° |
| 2026-05-05 08:49 | 48.11525 | 16.56592 | 612 ft | 6 kts | 115° |
| 2026-05-05 08:49 | 48.11505 | 16.56653 | 616 ft | 7 kts | 117° |
| 2026-05-05 08:49 | 48.11478 | 16.56731 | 617 ft | 10 kts | 115° |
| 2026-05-05 08:50 | 48.11445 | 16.56838 | 613 ft | 13 kts | 115° |
| 2026-05-05 08:50 | 48.11400 | 16.56976 | 625 ft | 15 kts | 115° |
| 2026-05-05 08:50 | 48.11351 | 16.57123 | 625 ft | 17 kts | 117° |
| 2026-05-05 08:50 | 48.11308 | 16.57291 | 615 ft | 17 kts | 84° |
| 2026-05-05 08:51 | 48.11403 | 16.57396 | 621 ft | 19 kts | 27° |
| 2026-05-05 08:51 | 48.11528 | 16.57459 | 606 ft | 19 kts | 357° |
| 2026-05-05 08:51 | 48.11657 | 16.57408 | 613 ft | 19 kts | 344° |
| 2026-05-05 08:51 | 48.11784 | 16.57355 | 602 ft | 20 kts | 345° |
| 2026-05-05 08:52 | 48.11908 | 16.57302 | 600 ft | 17 kts | 345° |
| 2026-05-05 08:52 | 48.12000 | 16.57373 | 598 ft | 17 kts | 70° |
| 2026-05-05 08:52 | 48.12010 | 16.57508 | 598 ft | 13 kts | 102° |
| 2026-05-05 08:52 | 48.11999 | 16.57573 | 597 ft | 0 kts | 104° |
| 2026-05-05 08:53 | 48.11995 | 16.57603 | 596 ft | 8 kts | 104° |
| 2026-05-05 08:54 | 48.11973 | 16.57725 | 596 ft | 15 kts | 107° |
| 2026-05-05 08:54 | 48.11912 | 16.57840 | 599 ft | 14 kts | 152° |
| 2026-05-05 08:54 | 48.11804 | 16.57893 | 601 ft | 28 kts | 162° |
| 2026-05-05 08:54 | 48.11330 | 16.58095 | 604 ft | 112 kts | 165° |
| 2026-05-05 08:55 | 48.10371 | 16.58462 | 747 ft | 169 kts | 166° |
| 2026-05-05 08:55 | 48.09169 | 16.58805 | 1693 ft | 170 kts | 168° |
| 2026-05-05 08:55 | 48.08070 | 16.59290 | 3020 ft | 163 kts | 167° |
| 2026-05-05 08:55 | 48.06941 | 16.59820 | 3436 ft | 194 kts | 168° |
| 2026-05-05 08:56 | 48.05650 | 16.60707 | 3945 ft | 212 kts | 153° |
| 2026-05-05 08:56 | 48.04555 | 16.62229 | 4833 ft | 221 kts | 130° |
| 2026-05-05 08:56 | 48.03885 | 16.64354 | 5636 ft | 234 kts | 109° |
| 2026-05-05 08:56 | 48.03778 | 16.66815 | 6470 ft | 243 kts | 92° |
| 2026-05-05 08:57 | 48.03858 | 16.69456 | 6868 ft | 269 kts | 92° |
| 2026-05-05 08:57 | 48.03924 | 16.72009 | 7222 ft | 289 kts | 92° |
| 2026-05-05 08:57 | 48.03994 | 16.74991 | 8070 ft | 292 kts | 92° |
| 2026-05-05 08:57 | 48.04056 | 16.78021 | 9054 ft | 292 kts | 91° |
| 2026-05-05 08:58 | 48.04114 | 16.80775 | 9901 ft | 294 kts | 93° |
| 2026-05-05 08:58 | 48.04164 | 16.83350 | 10495 ft | 300 kts | 94° |
| 2026-05-05 08:58 | 48.03916 | 16.86538 | 10709 ft | 321 kts | 107° |
| 2026-05-05 08:58 | 48.03403 | 16.89455 | 10922 ft | 342 kts | 108° |
| 2026-05-05 08:59 | 48.02797 | 16.92992 | 11304 ft | 359 kts | 107° |
| 2026-05-05 08:59 | 48.02209 | 16.96649 | 12026 ft | 364 kts | 107° |
| 2026-05-05 08:59 | 48.01633 | 17.00335 | 12886 ft | 365 kts | 107° |
| 2026-05-05 08:59 | 48.01062 | 17.04034 | 13640 ft | 371 kts | 106° |
| 2026-05-05 09:00 | 48.00675 | 17.07903 | 14202 ft | 382 kts | 100° |
| 2026-05-05 09:00 | 48.00420 | 17.11886 | 14917 ft | 388 kts | 98° |
| 2026-05-05 09:00 | 47.99915 | 17.15849 | 15190 ft | 392 kts | 116° |
| 2026-05-05 09:00 | 47.98614 | 17.18904 | 15778 ft | 387 kts | 135° |
| 2026-05-05 09:01 | 47.96520 | 17.21294 | 16697 ft | 377 kts | 155° |
| 2026-05-05 09:01 | 47.94207 | 17.22539 | 17291 ft | 377 kts | 172° |
| 2026-05-05 09:01 | 47.91685 | 17.22449 | 17854 ft | 379 kts | 194° |
| 2026-05-05 09:01 | 47.89219 | 17.21179 | 18489 ft | 381 kts | 203° |
| 2026-05-05 09:02 | 47.87708 | 17.20107 | 18808 ft | 384 kts | 209° |
| 2026-05-05 09:02 | 47.85526 | 17.17790 | 19284 ft | 390 kts | 219° |
| 2026-05-05 09:02 | 47.83576 | 17.15347 | 19774 ft | 394 kts | 220° |
| 2026-05-05 09:02 | 47.81569 | 17.12777 | 20263 ft | 398 kts | 220° |
| 2026-05-05 09:03 | 47.79459 | 17.10078 | 20760 ft | 402 kts | 220° |
| 2026-05-05 09:03 | 47.77339 | 17.07391 | 21193 ft | 408 kts | 220° |
| 2026-05-05 09:03 | 47.75166 | 17.04663 | 21720 ft | 411 kts | 220° |
| 2026-05-05 09:03 | 47.73036 | 17.02008 | 22209 ft | 414 kts | 220° |
| 2026-05-05 09:04 | 47.71143 | 16.99658 | 22600 ft | 418 kts | 220° |
| 2026-05-05 09:04 | 47.69386 | 16.97484 | 22964 ft | 421 kts | 220° |
| 2026-05-05 09:04 | 47.67068 | 16.94871 | 23509 ft | 423 kts | 210° |
| 2026-05-05 09:04 | 47.64287 | 16.93464 | 23990 ft | 427 kts | 189° |
| 2026-05-05 09:05 | 47.61308 | 16.93452 | 24433 ft | 432 kts | 173° |
| 2026-05-05 09:05 | 47.58394 | 16.94603 | 24822 ft | 438 kts | 159° |
| 2026-05-05 09:05 | 47.55740 | 16.96873 | 24895 ft | 447 kts | 142° |
| 2026-05-05 09:05 | 47.54090 | 16.99289 | 24927 ft | 454 kts | 130° |
| 2026-05-05 09:06 | 47.52527 | 17.02846 | 24934 ft | 459 kts | 117° |
| 2026-05-05 09:06 | 47.51480 | 17.07148 | 24951 ft | 461 kts | 105° |
| 2026-05-05 09:06 | 47.50841 | 17.11809 | 24934 ft | 463 kts | 100° |
| 2026-05-05 09:06 | 47.50355 | 17.16525 | 24933 ft | 464 kts | 99° |
| 2026-05-05 09:07 | 47.49922 | 17.21189 | 24913 ft | 450 kts | 99° |
| 2026-05-05 09:07 | 47.49535 | 17.25316 | 24918 ft | 434 kts | 99° |
| 2026-05-05 09:07 | 47.49164 | 17.29107 | 24930 ft | 431 kts | 99° |
| 2026-05-05 09:07 | 47.48767 | 17.32955 | 24939 ft | 435 kts | 99° |
| 2026-05-05 09:08 | 47.48290 | 17.37374 | 24948 ft | 434 kts | 99° |
| 2026-05-05 09:08 | 47.47797 | 17.41786 | 24949 ft | 435 kts | 100° |
| 2026-05-05 09:08 | 47.47302 | 17.46144 | 24952 ft | 440 kts | 100° |
| 2026-05-05 09:08 | 47.46786 | 17.50631 | 24941 ft | 444 kts | 100° |
| 2026-05-05 09:09 | 47.46312 | 17.54738 | 24947 ft | 445 kts | 100° |
| 2026-05-05 09:09 | 47.45794 | 17.59222 | 24935 ft | 441 kts | 100° |
| 2026-05-05 09:09 | 47.45279 | 17.63665 | 24938 ft | 437 kts | 100° |
| 2026-05-05 09:09 | 47.44765 | 17.68090 | 24942 ft | 437 kts | 100° |
| 2026-05-05 09:10 | 47.44255 | 17.72468 | 24857 ft | 440 kts | 100° |
| 2026-05-05 09:10 | 47.43736 | 17.76915 | 24397 ft | 443 kts | 101° |
| 2026-05-05 09:10 | 47.43222 | 17.81295 | 23915 ft | 439 kts | 101° |
| 2026-05-05 09:10 | 47.42702 | 17.85714 | 23376 ft | 435 kts | 101° |
| 2026-05-05 09:11 | 47.42229 | 17.89710 | 22808 ft | 432 kts | 101° |
| 2026-05-05 09:11 | 47.41730 | 17.93925 | 22271 ft | 429 kts | 101° |
| 2026-05-05 09:11 | 47.41235 | 17.98085 | 21638 ft | 427 kts | 101° |
| 2026-05-05 09:11 | 47.40770 | 18.01987 | 21248 ft | 422 kts | 101° |
| 2026-05-05 09:12 | 47.40424 | 18.04887 | 20871 ft | 419 kts | 101° |
| 2026-05-05 09:12 | 47.39903 | 18.09233 | 20360 ft | 414 kts | 101° |
| 2026-05-05 09:12 | 47.39406 | 18.13357 | 19848 ft | 411 kts | 102° |
| 2026-05-05 09:12 | 47.38907 | 18.17492 | 19318 ft | 408 kts | 102° |
| 2026-05-05 09:13 | 47.38427 | 18.21469 | 18833 ft | 405 kts | 102° |
| 2026-05-05 09:13 | 47.37995 | 18.25001 | 18407 ft | 402 kts | 103° |
| 2026-05-05 09:13 | 47.37238 | 18.28937 | 17833 ft | 397 kts | 113° |
| 2026-05-05 09:13 | 47.36205 | 18.32158 | 17346 ft | 392 kts | 122° |
| 2026-05-05 09:14 | 47.34807 | 18.35583 | 16829 ft | 388 kts | 124° |
| 2026-05-05 09:14 | 47.33513 | 18.38688 | 16352 ft | 385 kts | 124° |
| 2026-05-05 09:14 | 47.32195 | 18.41846 | 15878 ft | 382 kts | 124° |
| 2026-05-05 09:14 | 47.30957 | 18.44827 | 15431 ft | 379 kts | 124° |
| 2026-05-05 09:15 | 47.29805 | 18.47614 | 15019 ft | 376 kts | 124° |
| 2026-05-05 09:15 | 47.28916 | 18.49773 | 14693 ft | 375 kts | 124° |
| 2026-05-05 09:15 | 47.27570 | 18.53044 | 14207 ft | 372 kts | 123° |
| 2026-05-05 09:15 | 47.26235 | 18.56290 | 13707 ft | 370 kts | 123° |
| 2026-05-05 09:16 | 47.24924 | 18.59478 | 13184 ft | 368 kts | 123° |
| 2026-05-05 09:16 | 47.23774 | 18.62271 | 12737 ft | 365 kts | 123° |
| 2026-05-05 09:16 | 47.22464 | 18.65454 | 12233 ft | 362 kts | 123° |
| 2026-05-05 09:16 | 47.21184 | 18.68562 | 11759 ft | 358 kts | 123° |
| 2026-05-05 09:17 | 47.20503 | 18.70502 | 11445 ft | 354 kts | 113° |
| 2026-05-05 09:17 | 47.20097 | 18.74037 | 10966 ft | 351 kts | 89° |
| 2026-05-05 09:17 | 47.20541 | 18.77484 | 10809 ft | 335 kts | 72° |
| 2026-05-05 09:17 | 47.21575 | 18.80475 | 10664 ft | 323 kts | 59° |
| 2026-05-05 09:18 | 47.22519 | 18.82628 | 10561 ft | 315 kts | 58° |
| 2026-05-05 09:18 | 47.23612 | 18.85096 | 10449 ft | 310 kts | 58° |
| 2026-05-05 09:18 | 47.24783 | 18.87780 | 10328 ft | 313 kts | 59° |
| 2026-05-05 09:18 | 47.25925 | 18.90429 | 10167 ft | 302 kts | 59° |
| 2026-05-05 09:19 | 47.26508 | 18.91793 | 10092 ft | 295 kts | 59° |
| 2026-05-05 09:19 | 47.27156 | 18.93316 | 9992 ft | 287 kts | 59° |
| 2026-05-05 09:19 | 47.27964 | 18.95218 | 9759 ft | 282 kts | 60° |
| 2026-05-05 09:20 | 47.28948 | 18.97538 | 9489 ft | 275 kts | 59° |
| 2026-05-05 09:20 | 47.29947 | 18.99895 | 9211 ft | 268 kts | 59° |
| 2026-05-05 09:20 | 47.30994 | 19.02132 | 8987 ft | 265 kts | 47° |
| 2026-05-05 09:21 | 47.32346 | 19.03925 | 8799 ft | 261 kts | 41° |
| 2026-05-05 09:21 | 47.33718 | 19.05683 | 8532 ft | 261 kts | 42° |
| 2026-05-05 09:21 | 47.35064 | 19.07453 | 8262 ft | 258 kts | 43° |
| 2026-05-05 09:21 | 47.36388 | 19.09214 | 8061 ft | 252 kts | 43° |
| 2026-05-05 09:22 | 47.37276 | 19.10289 | 7980 ft | 248 kts | 31° |
| 2026-05-05 09:22 | 47.38923 | 19.10983 | 7859 ft | 246 kts | 356° |
| 2026-05-05 09:22 | 47.40576 | 19.10343 | 7642 ft | 249 kts | 328° |
| 2026-05-05 09:22 | 47.41911 | 19.08745 | 7424 ft | 248 kts | 311° |
| 2026-05-05 09:23 | 47.43074 | 19.06852 | 7182 ft | 250 kts | 309° |
| 2026-05-05 09:23 | 47.44221 | 19.04937 | 6924 ft | 248 kts | 308° |
| 2026-05-05 09:23 | 47.45321 | 19.03115 | 6674 ft | 245 kts | 308° |
| 2026-05-05 09:23 | 47.46449 | 19.01256 | 6427 ft | 241 kts | 308° |
| 2026-05-05 09:24 | 47.47567 | 18.99424 | 6184 ft | 240 kts | 308° |
| 2026-05-05 09:24 | 47.48690 | 18.97596 | 5938 ft | 240 kts | 308° |
| 2026-05-05 09:24 | 47.49816 | 18.95764 | 5703 ft | 241 kts | 309° |
| 2026-05-05 09:24 | 47.50875 | 18.94040 | 5467 ft | 240 kts | 308° |
| 2026-05-05 09:25 | 47.51995 | 18.92213 | 5243 ft | 240 kts | 308° |
| 2026-05-05 09:25 | 47.53296 | 18.90686 | 5067 ft | 242 kts | 336° |
| 2026-05-05 09:25 | 47.54886 | 18.90414 | 4898 ft | 244 kts | 11° |
| 2026-05-05 09:25 | 47.56219 | 18.91271 | 4762 ft | 245 kts | 37° |
| 2026-05-05 09:26 | 47.57537 | 18.92892 | 4561 ft | 249 kts | 44° |
| 2026-05-05 09:26 | 47.58799 | 18.94658 | 4322 ft | 248 kts | 50° |
| 2026-05-05 09:26 | 47.59516 | 18.96840 | 4121 ft | 228 kts | 91° |
| 2026-05-05 09:26 | 47.59139 | 18.98930 | 3991 ft | 202 kts | 133° |
| 2026-05-05 09:27 | 47.58215 | 19.00373 | 3906 ft | 188 kts | 137° |
| 2026-05-05 09:27 | 47.57354 | 19.01775 | 3787 ft | 181 kts | 137° |
| 2026-05-05 09:27 | 47.56510 | 19.03161 | 3675 ft | 179 kts | 137° |
| 2026-05-05 09:27 | 47.55710 | 19.04472 | 3531 ft | 164 kts | 137° |
| 2026-05-05 09:28 | 47.54970 | 19.05697 | 3369 ft | 161 kts | 137° |
| 2026-05-05 09:28 | 47.54251 | 19.06877 | 3218 ft | 155 kts | 138° |
| 2026-05-05 09:28 | 47.53533 | 19.08045 | 2980 ft | 154 kts | 139° |
| 2026-05-05 09:28 | 47.52820 | 19.09202 | 2771 ft | 151 kts | 139° |
| 2026-05-05 09:29 | 47.52114 | 19.10342 | 2554 ft | 150 kts | 139° |
| 2026-05-05 09:29 | 47.51406 | 19.11488 | 2383 ft | 151 kts | 139° |
| 2026-05-05 09:29 | 47.50753 | 19.12561 | 2107 ft | 147 kts | 136° |
| 2026-05-05 09:29 | 47.50091 | 19.13707 | 1831 ft | 142 kts | 139° |
| 2026-05-05 09:30 | 47.49530 | 19.14618 | 1693 ft | 136 kts | 139° |
| 2026-05-05 09:30 | 47.48877 | 19.15638 | 1483 ft | 138 kts | 137° |
| 2026-05-05 09:30 | 47.48224 | 19.16693 | 1341 ft | 138 kts | 137° |
| 2026-05-05 09:30 | 47.47549 | 19.17691 | 1221 ft | 137 kts | 131° |
| 2026-05-05 09:31 | 47.46912 | 19.18762 | 1048 ft | 140 kts | 126° |
| 2026-05-05 09:31 | 47.46258 | 19.19846 | 928 ft | 143 kts | 134° |
| 2026-05-05 09:31 | 47.45564 | 19.20928 | 713 ft | 148 kts | 127° |
| 2026-05-05 09:31 | 47.44880 | 19.22059 | 545 ft | 145 kts | 128° |
| 2026-05-05 09:32 | 47.44253 | 19.23082 | 482 ft | 121 kts | 133° |
| 2026-05-05 09:32 | 47.43777 | 19.23842 | 486 ft | 76 kts | 130° |
| 2026-05-05 09:32 | 47.43476 | 19.24332 | 476 ft | 59 kts | 133° |
| 2026-05-05 09:32 | 47.43246 | 19.24702 | 487 ft | 44 kts | 133° |
| 2026-05-05 09:33 | 47.43113 | 19.24932 | 486 ft | 22 kts | 114° |
| 2026-05-05 09:33 | 47.43159 | 19.25130 | 487 ft | 21 kts | 47° |
| 2026-05-05 09:33 | 47.43265 | 19.25280 | 484 ft | 21 kts | 42° |
| 2026-05-05 09:33 | 47.43372 | 19.25419 | 478 ft | 19 kts | 40° |
| 2026-05-05 09:34 | 47.43438 | 19.25510 | 479 ft | 13 kts | 41° |
| 2026-05-05 09:34 | 47.43502 | 19.25597 | 478 ft | 12 kts | 47° |
| 2026-05-05 09:34 | 47.43534 | 19.25705 | 482 ft | 12 kts | 108° |
| 2026-05-05 09:34 | 47.43488 | 19.25807 | 477 ft | 12 kts | 116° |
| 2026-05-05 09:35 | 47.43442 | 19.25904 | 479 ft | 9 kts | 130° |
| 2026-05-05 09:35 | 47.43345 | 19.25945 | 476 ft | 6 kts | 177° |
| 2026-05-05 09:35 | 47.43304 | 19.25949 | 482 ft | 6 kts | 195° |
| 2026-05-05 09:36 | 47.43290 | 19.25938 | 479 ft | 0 kts | 207° |